PWSweather.com
Personal Weather Stations
Station Observations
KMAMEDFI2
Medfield, MA 02052

Medfield, MA 02052

Lat: 42.1900822, Lon: -71.3296889

Elevation: 138

Station Type: Rainwise WS MK-III

http://www.medfieldweather.com

High Low Average
Temperature 30.3°F-0.9°C 14.5°F-9.7°C 22.5°F-5.3°C
Dew Point 15.7°F-9.1°C -2.5°F-19.2°C 5.2°F-14.9°C
Winds 6.9 mph 11.1 kmh Calm Calm 2.0 mph S3.2 kmh S
Wind Gusts 13.8 mph22.2 kmh -- 3.0 mph4.8 kmh
Humidity 71% 25% 48%
Pressure 30.35 in1027.8 mb 30.09 in1019.0 mb -
Precipitation 0.00 in0.0 mm - -
Hour Temp Dew Point Humidity Winds Wind Gusts Pressure Precip Precip Rate Daily Precip Total
12:00 AM 28.5°F-1.9°C 14.8°F-9.6°C 56% 6.9 mph WNW11.1 kmh WNW 8.1 mph13.0 kmh 30.09 in1019.0 mb - 0.00 in0.0 mm 0.00 in0.0 mm
12:10 AM 28.3°F-2.1°C 15.4°F-9.2°C 58% 2.3 mph W3.7 kmh W 8.1 mph13.0 kmh 30.10 in1019.3 mb - 0.00 in0.0 mm 0.00 in0.0 mm
12:20 AM 27.9°F-2.3°C 15.0°F-9.4°C 58% 4.6 mph WSW7.4 kmh WSW 13.8 mph22.2 kmh 30.10 in1019.3 mb - 0.00 in0.0 mm 0.00 in0.0 mm
12:30 AM 27.9°F-2.3°C 15.4°F-9.2°C 59% 3.5 mph SW5.6 kmh SW 8.1 mph13.0 kmh 30.10 in1019.3 mb - 0.00 in0.0 mm 0.00 in0.0 mm
12:40 AM 27.9°F-2.3°C 15.4°F-9.2°C 59% 3.5 mph W5.6 kmh W 5.8 mph9.3 kmh 30.11 in1019.6 mb - 0.00 in0.0 mm 0.00 in0.0 mm
12:50 AM 27.4°F-2.6°C 15.4°F-9.2°C 60% Calm Calm 2.3 mph3.7 kmh 30.12 in1020.0 mb - 0.00 in0.0 mm 0.00 in0.0 mm
01:00 AM 26.9°F-2.8°C 15.2°F-9.3°C 61% 1.2 mph WSW1.9 kmh WSW 3.5 mph5.6 kmh 30.12 in1020.0 mb - 0.00 in0.0 mm 0.00 in0.0 mm
01:10 AM 26.9°F-2.8°C 15.6°F-9.1°C 62% 3.5 mph SW5.6 kmh SW 2.3 mph3.7 kmh 30.12 in1020.0 mb - 0.00 in0.0 mm 0.00 in0.0 mm
01:20 AM 26.4°F-3.1°C 15.5°F-9.2°C 63% Calm Calm -- 30.13 in1020.3 mb - 0.00 in0.0 mm 0.00 in0.0 mm
01:30 AM 26.0°F-3.3°C 15.1°F-9.4°C 63% 3.5 mph WSW5.6 kmh WSW 8.1 mph13.0 kmh 30.14 in1020.7 mb - 0.00 in0.0 mm 0.00 in0.0 mm
01:40 AM 26.2°F-3.2°C 15.7°F-9.1°C 64% 1.2 mph WNW1.9 kmh WNW 1.2 mph1.9 kmh 30.13 in1020.3 mb - 0.00 in0.0 mm 0.00 in0.0 mm
01:50 AM 25.9°F-3.4°C 15.0°F-9.4°C 63% 3.5 mph W5.6 kmh W 10.4 mph16.7 kmh 30.15 in1021.0 mb - 0.00 in0.0 mm 0.00 in0.0 mm
02:00 AM 26.1°F-3.3°C 14.8°F-9.6°C 62% 4.6 mph WSW7.4 kmh WSW 10.4 mph16.7 kmh 30.16 in1021.3 mb - 0.00 in0.0 mm 0.00 in0.0 mm
02:10 AM 25.9°F-3.4°C 13.9°F-10.1°C 60% 4.6 mph WSW7.4 kmh WSW 11.5 mph18.5 kmh 30.17 in1021.7 mb - 0.00 in0.0 mm 0.00 in0.0 mm
02:20 AM 25.8°F-3.4°C 11.0°F-11.7°C 53% 6.9 mph NW11.1 kmh NW 9.2 mph14.8 kmh 30.18 in1022.0 mb - 0.00 in0.0 mm 0.00 in0.0 mm
02:30 AM 25.5°F-3.6°C 10.3°F-12.1°C 52% 4.6 mph NW7.4 kmh NW 3.5 mph5.6 kmh 30.18 in1022.0 mb - 0.00 in0.0 mm 0.00 in0.0 mm
02:40 AM 24.8°F-4.0°C 10.5°F-11.9°C 54% 3.5 mph NW5.6 kmh NW 2.3 mph3.7 kmh 30.19 in1022.4 mb - 0.00 in0.0 mm 0.00 in0.0 mm
02:50 AM 24.4°F-4.2°C 10.1°F-12.2°C 54% 1.2 mph NNE1.9 kmh NNE 2.3 mph3.7 kmh 30.19 in1022.4 mb - 0.00 in0.0 mm 0.00 in0.0 mm
03:00 AM 24.0°F-4.4°C 7.6°F-13.6°C 49% 2.3 mph SW3.7 kmh SW 3.5 mph5.6 kmh 30.20 in1022.7 mb - 0.00 in0.0 mm 0.00 in0.0 mm
03:10 AM 23.6°F-4.7°C 6.8°F-14.0°C 48% 4.6 mph NW7.4 kmh NW 6.9 mph11.1 kmh 30.20 in1022.7 mb - 0.00 in0.0 mm 0.00 in0.0 mm
03:20 AM 23.4°F-4.8°C 6.6°F-14.1°C 48% 2.3 mph NNW3.7 kmh NNW 6.9 mph11.1 kmh 30.20 in1022.7 mb - 0.00 in0.0 mm 0.00 in0.0 mm
03:30 AM 22.9°F-5.1°C 5.6°F-14.7°C 47% 2.3 mph NE3.7 kmh NE 8.1 mph13.0 kmh 30.20 in1022.7 mb - 0.00 in0.0 mm 0.00 in0.0 mm
03:40 AM 22.7°F-5.2°C 5.0°F-15.0°C 46% 4.6 mph WSW7.4 kmh WSW 3.5 mph5.6 kmh 30.21 in1023.0 mb - 0.00 in0.0 mm 0.00 in0.0 mm
03:50 AM 22.2°F-5.4°C 5.5°F-14.7°C 48% 2.3 mph SE3.7 kmh SE 2.3 mph3.7 kmh 30.22 in1023.4 mb - 0.00 in0.0 mm 0.00 in0.0 mm
04:00 AM 21.5°F-5.8°C 5.3°F-14.8°C 49% 2.3 mph NW3.7 kmh NW 2.3 mph3.7 kmh 30.22 in1023.4 mb - 0.00 in0.0 mm 0.00 in0.0 mm
04:10 AM 21.1°F-6.1°C 5.3°F-14.8°C 50% 2.3 mph ENE3.7 kmh ENE 3.5 mph5.6 kmh 30.23 in1023.7 mb - 0.00 in0.0 mm 0.00 in0.0 mm
04:20 AM 20.9°F-6.2°C 5.2°F-14.9°C 50% 2.3 mph WSW3.7 kmh WSW 2.3 mph3.7 kmh 30.23 in1023.7 mb - 0.00 in0.0 mm 0.00 in0.0 mm
04:30 AM 20.6°F-6.3°C 4.0°F-15.6°C 48% 2.3 mph NW3.7 kmh NW 2.3 mph3.7 kmh 30.23 in1023.7 mb - 0.00 in0.0 mm 0.00 in0.0 mm
04:40 AM 20.2°F-6.6°C 5.3°F-14.8°C 52% 3.5 mph NNE5.6 kmh NNE 5.8 mph9.3 kmh 30.24 in1024.0 mb - 0.00 in0.0 mm 0.00 in0.0 mm
04:50 AM 19.9°F-6.7°C 3.3°F-15.9°C 48% 1.2 mph NE1.9 kmh NE 2.3 mph3.7 kmh 30.25 in1024.4 mb - 0.00 in0.0 mm 0.00 in0.0 mm
05:00 AM 19.5°F-6.9°C 3.4°F-15.9°C 49% Calm Calm -- 30.25 in1024.4 mb - 0.00 in0.0 mm 0.00 in0.0 mm
05:10 AM 18.9°F-7.3°C 3.7°F-15.7°C 51% 1.2 mph E1.9 kmh E 5.8 mph9.3 kmh 30.25 in1024.4 mb - 0.00 in0.0 mm 0.00 in0.0 mm
05:20 AM 18.5°F-7.5°C 3.8°F-15.7°C 52% 3.5 mph NW5.6 kmh NW 2.3 mph3.7 kmh 30.25 in1024.4 mb - 0.00 in0.0 mm 0.00 in0.0 mm
05:30 AM 18.0°F-7.8°C 3.8°F-15.7°C 53% 3.5 mph S5.6 kmh S 6.9 mph11.1 kmh 30.25 in1024.4 mb - 0.00 in0.0 mm 0.00 in0.0 mm
05:40 AM 17.9°F-7.8°C 3.6°F-15.8°C 53% 2.3 mph NW3.7 kmh NW 2.3 mph3.7 kmh 30.25 in1024.4 mb - 0.00 in0.0 mm 0.00 in0.0 mm
05:50 AM 17.5°F-8.1°C 3.3°F-15.9°C 53% 1.2 mph WSW1.9 kmh WSW 2.3 mph3.7 kmh 30.26 in1024.7 mb - 0.00 in0.0 mm 0.00 in0.0 mm
06:00 AM 17.0°F-8.3°C 3.2°F-16.0°C 54% 2.3 mph WSW3.7 kmh WSW 2.3 mph3.7 kmh 30.26 in1024.7 mb - 0.00 in0.0 mm 0.00 in0.0 mm
06:10 AM 16.9°F-8.4°C 3.5°F-15.8°C 55% 2.3 mph NW3.7 kmh NW 2.3 mph3.7 kmh 30.26 in1024.7 mb - 0.00 in0.0 mm 0.00 in0.0 mm
06:20 AM 16.7°F-8.5°C 3.7°F-15.7°C 56% 2.3 mph W3.7 kmh W 2.3 mph3.7 kmh 30.27 in1025.1 mb - 0.00 in0.0 mm 0.00 in0.0 mm
06:30 AM 16.3°F-8.7°C 3.7°F-15.7°C 57% 1.2 mph NW1.9 kmh NW 2.3 mph3.7 kmh 30.27 in1025.1 mb - 0.00 in0.0 mm 0.00 in0.0 mm
06:40 AM 15.8°F-9.0°C 4.3°F-15.4°C 60% Calm Calm -- 30.28 in1025.4 mb - 0.00 in0.0 mm 0.00 in0.0 mm
06:50 AM 15.1°F-9.4°C 4.1°F-15.5°C 61% 2.3 mph WNW3.7 kmh WNW 2.3 mph3.7 kmh 30.29 in1025.7 mb - 0.00 in0.0 mm 0.00 in0.0 mm
07:00 AM 14.9°F-9.5°C 4.2°F-15.4°C 62% Calm Calm 2.3 mph3.7 kmh 30.29 in1025.7 mb - 0.00 in0.0 mm 0.00 in0.0 mm
07:10 AM 15.1°F-9.4°C 4.1°F-15.5°C 61% 1.2 mph W1.9 kmh W 2.3 mph3.7 kmh 30.28 in1025.4 mb - 0.00 in0.0 mm 0.00 in0.0 mm
07:20 AM 14.9°F-9.5°C 3.9°F-15.6°C 61% 3.5 mph W5.6 kmh W 5.8 mph9.3 kmh 30.28 in1025.4 mb - 0.00 in0.0 mm 0.00 in0.0 mm
07:30 AM 14.9°F-9.5°C 3.9°F-15.6°C 61% 3.5 mph WSW5.6 kmh WSW 2.3 mph3.7 kmh 30.29 in1025.7 mb - 0.00 in0.0 mm 0.00 in0.0 mm
07:40 AM 14.8°F-9.6°C 3.8°F-15.7°C 61% 2.3 mph NNE3.7 kmh NNE 3.5 mph5.6 kmh 30.30 in1026.1 mb - 0.00 in0.0 mm 0.00 in0.0 mm
07:50 AM 14.6°F-9.7°C 3.6°F-15.8°C 61% 1.2 mph WSW1.9 kmh WSW 2.3 mph3.7 kmh 30.30 in1026.1 mb - 0.00 in0.0 mm 0.00 in0.0 mm
08:00 AM 14.5°F-9.7°C 3.8°F-15.7°C 62% 1.2 mph SW1.9 kmh SW 1.2 mph1.9 kmh 30.31 in1026.4 mb - 0.00 in0.0 mm 0.00 in0.0 mm
08:10 AM 14.5°F-9.7°C 4.2°F-15.4°C 63% Calm Calm 2.3 mph3.7 kmh 30.31 in1026.4 mb - 0.00 in0.0 mm 0.00 in0.0 mm
08:20 AM 15.0°F-9.4°C 4.3°F-15.4°C 62% 2.3 mph NW3.7 kmh NW 2.3 mph3.7 kmh 30.32 in1026.8 mb - 0.00 in0.0 mm 0.00 in0.0 mm
08:30 AM 15.6°F-9.1°C 4.2°F-15.4°C 60% 2.3 mph WNW3.7 kmh WNW 2.3 mph3.7 kmh 30.32 in1026.8 mb - 0.00 in0.0 mm 0.00 in0.0 mm
08:40 AM 16.1°F-8.8°C 3.9°F-15.6°C 58% 1.2 mph WSW1.9 kmh WSW 2.3 mph3.7 kmh 30.32 in1026.8 mb - 0.00 in0.0 mm 0.00 in0.0 mm
08:50 AM 17.1°F-8.3°C 4.1°F-15.5°C 56% 3.5 mph WNW5.6 kmh WNW 5.8 mph9.3 kmh 30.32 in1026.8 mb - 0.00 in0.0 mm 0.00 in0.0 mm
09:00 AM 17.4°F-8.1°C 4.0°F-15.6°C 55% 3.5 mph WSW5.6 kmh WSW 9.2 mph14.8 kmh 30.33 in1027.1 mb - 0.00 in0.0 mm 0.00 in0.0 mm
09:10 AM 17.4°F-8.1°C 3.6°F-15.8°C 54% 5.8 mph WSW9.3 kmh WSW 8.1 mph13.0 kmh 30.33 in1027.1 mb - 0.00 in0.0 mm 0.00 in0.0 mm
09:20 AM 17.8°F-7.9°C 3.5°F-15.8°C 53% 2.3 mph NNW3.7 kmh NNW 5.8 mph9.3 kmh 30.34 in1027.4 mb - 0.00 in0.0 mm 0.00 in0.0 mm
09:30 AM 18.1°F-7.7°C 3.0°F-16.1°C 51% 3.5 mph NW5.6 kmh NW 3.5 mph5.6 kmh 30.34 in1027.4 mb - 0.00 in0.0 mm 0.00 in0.0 mm
09:40 AM 18.4°F-7.6°C 2.4°F-16.4°C 49% 4.6 mph NW7.4 kmh NW 11.5 mph18.5 kmh 30.35 in1027.8 mb - 0.00 in0.0 mm 0.00 in0.0 mm
09:50 AM 18.8°F-7.3°C 2.8°F-16.2°C 49% Calm Calm 2.3 mph3.7 kmh 30.34 in1027.4 mb - 0.00 in0.0 mm 0.00 in0.0 mm
10:00 AM 19.4°F-7.0°C 2.5°F-16.4°C 47% 4.6 mph WSW7.4 kmh WSW 9.2 mph14.8 kmh 30.35 in1027.8 mb - 0.00 in0.0 mm 0.00 in0.0 mm
10:10 AM 20.3°F-6.5°C 2.8°F-16.2°C 46% 2.3 mph NE3.7 kmh NE 3.5 mph5.6 kmh 30.35 in1027.8 mb - 0.00 in0.0 mm 0.00 in0.0 mm
10:20 AM 20.8°F-6.2°C 2.3°F-16.5°C 44% 3.5 mph NW5.6 kmh NW 2.3 mph3.7 kmh 30.35 in1027.8 mb - 0.00 in0.0 mm 0.00 in0.0 mm
10:30 AM 21.8°F-5.7°C 1.7°F-16.8°C 41% 4.6 mph WNW7.4 kmh WNW 6.9 mph11.1 kmh 30.34 in1027.4 mb - 0.00 in0.0 mm 0.00 in0.0 mm
10:40 AM 22.6°F-5.2°C 2.4°F-16.4°C 41% 2.3 mph E3.7 kmh E 2.3 mph3.7 kmh 30.35 in1027.8 mb - 0.00 in0.0 mm 0.00 in0.0 mm
10:50 AM 22.7°F-5.2°C 1.4°F-17.0°C 39% 2.3 mph N3.7 kmh N 2.3 mph3.7 kmh 30.35 in1027.8 mb - 0.00 in0.0 mm 0.00 in0.0 mm
11:00 AM 23.7°F-4.6°C 1.8°F-16.8°C 38% 3.5 mph NE5.6 kmh NE 5.8 mph9.3 kmh 30.35 in1027.8 mb - 0.00 in0.0 mm 0.00 in0.0 mm
11:10 AM 25.0°F-3.9°C 2.4°F-16.4°C 37% 3.5 mph S5.6 kmh S 2.3 mph3.7 kmh 30.35 in1027.8 mb - 0.00 in0.0 mm 0.00 in0.0 mm
11:20 AM 25.3°F-3.7°C 3.2°F-16.0°C 38% 2.3 mph WSW3.7 kmh WSW 3.5 mph5.6 kmh 30.34 in1027.4 mb - 0.00 in0.0 mm 0.00 in0.0 mm
11:30 AM 25.9°F-3.4°C 1.4°F-17.0°C 34% 2.3 mph S3.7 kmh S 2.3 mph3.7 kmh 30.34 in1027.4 mb - 0.00 in0.0 mm 0.00 in0.0 mm
11:40 AM 26.3°F-3.2°C 1.1°F-17.2°C 33% 1.2 mph NE1.9 kmh NE 2.3 mph3.7 kmh 30.34 in1027.4 mb - 0.00 in0.0 mm 0.00 in0.0 mm
11:50 AM 26.1°F-3.3°C 1.5°F-16.9°C 34% 2.3 mph N3.7 kmh N 3.5 mph5.6 kmh 30.34 in1027.4 mb - 0.00 in0.0 mm 0.00 in0.0 mm
12:00 PM 26.2°F-3.2°C 1.6°F-16.9°C 34% 3.5 mph SW5.6 kmh SW 5.8 mph9.3 kmh 30.33 in1027.1 mb - 0.00 in0.0 mm 0.00 in0.0 mm
12:10 PM 27.1°F-2.7°C 1.1°F-17.2°C 32% 2.3 mph SSE3.7 kmh SSE 2.3 mph3.7 kmh 30.32 in1026.8 mb - 0.00 in0.0 mm 0.00 in0.0 mm
12:20 PM 27.5°F-2.5°C 0.8°F-17.3°C 31% 5.8 mph WSW9.3 kmh WSW 6.9 mph11.1 kmh 30.31 in1026.4 mb - 0.00 in0.0 mm 0.00 in0.0 mm
12:30 PM 27.8°F-2.3°C 0.3°F-17.6°C 30% 3.5 mph W5.6 kmh W 5.8 mph9.3 kmh 30.31 in1026.4 mb - 0.00 in0.0 mm 0.00 in0.0 mm
12:40 PM 27.9°F-2.3°C 1.1°F-17.2°C 31% Calm Calm -- 30.31 in1026.4 mb - 0.00 in0.0 mm 0.00 in0.0 mm
12:50 PM 28.0°F-2.2°C 0.5°F-17.5°C 30% 3.5 mph SSE5.6 kmh SSE 5.8 mph9.3 kmh 30.31 in1026.4 mb - 0.00 in0.0 mm 0.00 in0.0 mm
01:00 PM 27.9°F-2.3°C 0.4°F-17.6°C 30% 2.3 mph SW3.7 kmh SW 2.3 mph3.7 kmh 30.30 in1026.1 mb - 0.00 in0.0 mm 0.00 in0.0 mm
01:10 PM 28.7°F-1.8°C 1.1°F-17.2°C 30% 2.3 mph W3.7 kmh W 2.3 mph3.7 kmh 30.30 in1026.1 mb - 0.00 in0.0 mm 0.00 in0.0 mm
01:20 PM 28.8°F-1.8°C -0.3°F-17.9°C 28% 3.5 mph SW5.6 kmh SW 2.3 mph3.7 kmh 30.30 in1026.1 mb - 0.00 in0.0 mm 0.00 in0.0 mm
01:30 PM 29.1°F-1.6°C -1.6°F-18.7°C 26% Calm Calm -- 30.30 in1026.1 mb - 0.00 in0.0 mm 0.00 in0.0 mm
01:40 PM 30.3°F-0.9°C 0.3°F-17.6°C 27% 2.3 mph NW3.7 kmh NW 2.3 mph3.7 kmh 30.30 in1026.1 mb - 0.00 in0.0 mm 0.00 in0.0 mm
01:50 PM 29.8°F-1.2°C -1.8°F-18.8°C 25% 2.3 mph W3.7 kmh W 2.3 mph3.7 kmh 30.30 in1026.1 mb - 0.00 in0.0 mm 0.00 in0.0 mm
02:00 PM 29.4°F-1.4°C -0.5°F-18.1°C 27% 2.3 mph E3.7 kmh E 2.3 mph3.7 kmh 30.30 in1026.1 mb - 0.00 in0.0 mm 0.00 in0.0 mm
02:10 PM 29.2°F-1.6°C -2.3°F-19.1°C 25% 2.3 mph NW3.7 kmh NW 2.3 mph3.7 kmh 30.29 in1025.7 mb - 0.00 in0.0 mm 0.00 in0.0 mm
02:20 PM 29.2°F-1.6°C -1.5°F-18.6°C 26% Calm Calm -- 30.29 in1025.7 mb - 0.00 in0.0 mm 0.00 in0.0 mm
02:30 PM 29.0°F-1.7°C -0.9°F-18.3°C 27% Calm Calm -- 30.29 in1025.7 mb - 0.00 in0.0 mm 0.00 in0.0 mm
02:40 PM 28.4°F-2.0°C -1.4°F-18.6°C 27% Calm Calm 1.2 mph1.9 kmh 30.29 in1025.7 mb - 0.00 in0.0 mm 0.00 in0.0 mm
02:50 PM 28.4°F-2.0°C -1.4°F-18.6°C 27% 2.3 mph SE3.7 kmh SE 2.3 mph3.7 kmh 30.29 in1025.7 mb - 0.00 in0.0 mm 0.00 in0.0 mm
03:00 PM 28.3°F-2.1°C -1.5°F-18.6°C 27% 1.2 mph SE1.9 kmh SE 1.2 mph1.9 kmh 30.29 in1025.7 mb - 0.00 in0.0 mm 0.00 in0.0 mm
03:10 PM 28.0°F-2.2°C -2.5°F-19.2°C 26% 1.2 mph SE1.9 kmh SE -- 30.28 in1025.4 mb - 0.00 in0.0 mm 0.00 in0.0 mm
03:20 PM 27.6°F-2.4°C -1.3°F-18.5°C 28% 1.2 mph SE1.9 kmh SE 2.3 mph3.7 kmh 30.28 in1025.4 mb - 0.00 in0.0 mm 0.00 in0.0 mm
03:30 PM 26.9°F-2.8°C -1.9°F-18.8°C 28% Calm Calm -- 30.28 in1025.4 mb - 0.00 in0.0 mm 0.00 in0.0 mm
03:40 PM 26.7°F-2.9°C -0.6°F-18.1°C 30% Calm Calm -- 30.28 in1025.4 mb - 0.00 in0.0 mm 0.00 in0.0 mm
03:50 PM 26.3°F-3.2°C -1.0°F-18.3°C 30% Calm Calm -- 30.27 in1025.1 mb - 0.00 in0.0 mm 0.00 in0.0 mm
04:20 PM 24.8°F-4.0°C -0.3°F-17.9°C 33% Calm Calm -- 30.28 in1025.4 mb - 0.00 in0.0 mm 0.00 in0.0 mm
04:30 PM 24.4°F-4.2°C 0.6°F-17.4°C 35% Calm Calm -- 30.28 in1025.4 mb - 0.00 in0.0 mm 0.00 in0.0 mm
04:40 PM 23.9°F-4.5°C 0.8°F-17.3°C 36% Calm Calm -- 30.28 in1025.4 mb - 0.00 in0.0 mm 0.00 in0.0 mm
04:50 PM 22.4°F-5.3°C 0.6°F-17.4°C 38% Calm Calm -- 30.27 in1025.1 mb - 0.00 in0.0 mm 0.00 in0.0 mm
05:00 PM 21.1°F-6.1°C -0.6°F-18.1°C 38% Calm Calm -- 30.27 in1025.1 mb - 0.00 in0.0 mm 0.00 in0.0 mm
05:10 PM 19.9°F-6.7°C 0.0°F-17.8°C 41% Calm Calm -- 30.29 in1025.7 mb - 0.00 in0.0 mm 0.00 in0.0 mm
05:20 PM 20.5°F-6.4°C 0.5°F-17.5°C 41% Calm Calm -- 30.28 in1025.4 mb - 0.00 in0.0 mm 0.00 in0.0 mm
05:30 PM 21.4°F-5.9°C 4.3°F-15.4°C 47% Calm Calm -- 30.27 in1025.1 mb - 0.00 in0.0 mm 0.00 in0.0 mm
05:40 PM 21.2°F-6.0°C 4.5°F-15.3°C 48% Calm Calm -- 30.28 in1025.4 mb - 0.00 in0.0 mm 0.00 in0.0 mm
05:50 PM 21.0°F-6.1°C 4.8°F-15.1°C 49% Calm Calm -- 30.28 in1025.4 mb - 0.00 in0.0 mm 0.00 in0.0 mm
06:00 PM 21.5°F-5.8°C 3.9°F-15.6°C 46% Calm Calm -- 30.26 in1024.7 mb - 0.00 in0.0 mm 0.00 in0.0 mm
06:10 PM 21.9°F-5.6°C 3.3°F-15.9°C 44% Calm Calm -- 30.26 in1024.7 mb - 0.00 in0.0 mm 0.00 in0.0 mm
06:20 PM 22.4°F-5.3°C 3.7°F-15.7°C 44% Calm Calm -- 30.27 in1025.1 mb - 0.00 in0.0 mm 0.00 in0.0 mm
06:30 PM 22.2°F-5.4°C 4.1°F-15.5°C 45% Calm Calm -- 30.28 in1025.4 mb - 0.00 in0.0 mm 0.00 in0.0 mm
06:40 PM 21.7°F-5.7°C 4.1°F-15.5°C 46% Calm Calm -- 30.28 in1025.4 mb - 0.00 in0.0 mm 0.00 in0.0 mm
06:50 PM 21.3°F-5.9°C 3.3°F-15.9°C 45% Calm Calm -- 30.28 in1025.4 mb - 0.00 in0.0 mm 0.00 in0.0 mm
07:00 PM 20.3°F-6.5°C 3.2°F-16.0°C 47% Calm Calm -- 30.29 in1025.7 mb - 0.00 in0.0 mm 0.00 in0.0 mm
07:10 PM 19.5°F-6.9°C 4.3°F-15.4°C 51% Calm Calm -- 30.29 in1025.7 mb - 0.00 in0.0 mm 0.00 in0.0 mm
07:20 PM 19.2°F-7.1°C 4.4°F-15.3°C 52% Calm Calm -- 30.29 in1025.7 mb - 0.00 in0.0 mm 0.00 in0.0 mm
07:30 PM 20.7°F-6.3°C 4.5°F-15.3°C 49% Calm Calm -- 30.29 in1025.7 mb - 0.00 in0.0 mm 0.00 in0.0 mm
07:40 PM 21.4°F-5.9°C 5.2°F-14.9°C 49% Calm Calm -- 30.27 in1025.1 mb - 0.00 in0.0 mm 0.00 in0.0 mm
07:50 PM 21.4°F-5.9°C 4.7°F-15.2°C 48% 1.2 mph SE1.9 kmh SE 2.3 mph3.7 kmh 30.27 in1025.1 mb - 0.00 in0.0 mm 0.00 in0.0 mm
08:00 PM 21.8°F-5.7°C 5.5°F-14.7°C 49% 2.3 mph SE3.7 kmh SE 2.3 mph3.7 kmh 30.27 in1025.1 mb - 0.00 in0.0 mm 0.00 in0.0 mm
08:10 PM 21.9°F-5.6°C 6.1°F-14.4°C 50% Calm Calm -- 30.27 in1025.1 mb - 0.00 in0.0 mm 0.00 in0.0 mm
08:20 PM 22.1°F-5.5°C 6.3°F-14.3°C 50% Calm Calm -- 30.27 in1025.1 mb - 0.00 in0.0 mm 0.00 in0.0 mm
08:30 PM 22.3°F-5.4°C 7.7°F-13.5°C 53% Calm Calm -- 30.27 in1025.1 mb - 0.00 in0.0 mm 0.00 in0.0 mm
08:40 PM 22.4°F-5.3°C 7.8°F-13.4°C 53% Calm Calm -- 30.27 in1025.1 mb - 0.00 in0.0 mm 0.00 in0.0 mm
08:50 PM 22.5°F-5.3°C 7.9°F-13.4°C 53% Calm Calm -- 30.27 in1025.1 mb - 0.00 in0.0 mm 0.00 in0.0 mm
09:00 PM 22.6°F-5.2°C 8.4°F-13.1°C 54% Calm Calm -- 30.27 in1025.1 mb - 0.00 in0.0 mm 0.00 in0.0 mm
09:10 PM 22.6°F-5.2°C 8.8°F-12.9°C 55% Calm Calm -- 30.27 in1025.1 mb - 0.00 in0.0 mm 0.00 in0.0 mm
09:20 PM 22.5°F-5.3°C 9.2°F-12.7°C 56% Calm Calm -- 30.27 in1025.1 mb - 0.00 in0.0 mm 0.00 in0.0 mm
09:30 PM 22.4°F-5.3°C 9.1°F-12.7°C 56% Calm Calm -- 30.27 in1025.1 mb - 0.00 in0.0 mm 0.00 in0.0 mm
09:40 PM 22.2°F-5.4°C 9.7°F-12.4°C 58% Calm Calm -- 30.26 in1024.7 mb - 0.00 in0.0 mm 0.00 in0.0 mm
09:50 PM 22.1°F-5.5°C 9.6°F-12.4°C 58% Calm Calm -- 30.26 in1024.7 mb - 0.00 in0.0 mm 0.00 in0.0 mm
10:00 PM 22.0°F-5.6°C 9.8°F-12.3°C 59% 1.2 mph SE1.9 kmh SE 2.3 mph3.7 kmh 30.26 in1024.7 mb - 0.00 in0.0 mm 0.00 in0.0 mm
10:10 PM 21.9°F-5.6°C 10.1°F-12.2°C 60% Calm Calm -- 30.26 in1024.7 mb - 0.00 in0.0 mm 0.00 in0.0 mm
10:20 PM 21.9°F-5.6°C 10.5°F-11.9°C 61% Calm Calm -- 30.26 in1024.7 mb - 0.00 in0.0 mm 0.00 in0.0 mm
10:30 PM 21.9°F-5.6°C 10.9°F-11.7°C 62% Calm Calm -- 30.26 in1024.7 mb - 0.00 in0.0 mm 0.00 in0.0 mm
10:40 PM 22.1°F-5.5°C 11.4°F-11.4°C 63% Calm Calm -- 30.26 in1024.7 mb - 0.00 in0.0 mm 0.00 in0.0 mm
10:50 PM 22.1°F-5.5°C 11.4°F-11.4°C 63% Calm Calm -- 30.26 in1024.7 mb - 0.00 in0.0 mm 0.00 in0.0 mm
11:00 PM 21.6°F-5.8°C 11.3°F-11.5°C 64% Calm Calm -- 30.26 in1024.7 mb - 0.00 in0.0 mm 0.00 in0.0 mm
11:10 PM 21.1°F-6.1°C 11.1°F-11.6°C 65% Calm Calm -- 30.27 in1025.1 mb - 0.00 in0.0 mm 0.00 in0.0 mm
11:20 PM 20.9°F-6.2°C 11.7°F-11.3°C 67% Calm Calm -- 30.26 in1024.7 mb - 0.00 in0.0 mm 0.00 in0.0 mm
11:30 PM 20.6°F-6.3°C 11.3°F-11.5°C 67% Calm Calm -- 30.26 in1024.7 mb - 0.00 in0.0 mm 0.00 in0.0 mm
11:40 PM 19.8°F-6.8°C 11.3°F-11.5°C 69% 1.2 mph SE1.9 kmh SE 1.2 mph1.9 kmh 30.25 in1024.4 mb - 0.00 in0.0 mm 0.00 in0.0 mm
11:50 PM 19.7°F-6.8°C 11.8°F-11.2°C 71% Calm Calm -- 30.25 in1024.4 mb - 0.00 in0.0 mm 0.00 in0.0 mm